Time;durP1;ratioP1;P1;durP2;ratioP2;P2;SDS_P1;SDS_P2;PMS_P1;PMS_P2;Temp;Humidity;BMP_temperature;BMP_pressure;BME280_temperature;BME280_humidity;BME280_pressure;Samples;Min_cycle;Max_cycle;Signal;HPM_P1;HPM_P2
2022/01/17 00:00:01;;;;;;;3.13;1.08;;;;;;;;;;5000608;28;20026;-81
2022/01/17 00:02:28;;;;;;;0.20;0.20;;;;;;;;;;4997302;28;20057;-83
2022/01/17 00:04:54;;;;;;;0.88;0.40;;;;;;;;;;4999816;28;20034;-82
2022/01/17 00:07:20;;;;;;;0.10;0.10;;;;;;;;;;5002439;28;20535;-82
2022/01/17 00:09:46;;;;;;;0.45;0.45;;;;;;;;;;4999732;28;20703;-83
2022/01/17 00:12:12;;;;;;;1.30;0.63;;;;;;;;;;4997599;28;20045;-79
2022/01/17 00:14:40;;;;;;;0.83;0.83;;;;;;;;;;4998600;28;20108;-80
2022/01/17 00:17:27;;;;;;;4.47;1.17;;;;;;;;;;4996076;28;20281;-80
2022/01/17 00:19:55;;;;;;;0.80;0.80;;;;;;;;;;4996484;28;20038;-80
2022/01/17 00:22:22;;;;;;;0.10;0.10;;;;;;;;;;4999192;28;20456;-80
2022/01/17 00:24:49;;;;;;;0.88;0.85;;;;;;;;;;5000283;28;20080;-79
2022/01/17 00:27:15;;;;;;;0.35;0.35;;;;;;;;;;5000045;28;20025;-80
2022/01/17 00:29:41;;;;;;;0.40;0.40;;;;;;;;;;4999731;28;20068;-79
2022/01/17 00:32:07;;;;;;;0.43;0.43;;;;;;;;;;5002925;28;20128;-80
2022/01/17 00:34:33;;;;;;;0.10;0.10;;;;;;;;;;5000026;28;20030;-79
2022/01/17 00:36:59;;;;;;;0.53;0.53;;;;;;;;;;4994620;28;20792;-79
2022/01/17 00:39:25;;;;;;;0.47;0.47;;;;;;;;;;4998871;28;20572;-79
2022/01/17 00:41:51;;;;;;;4.30;1.23;;;;;;;;;;5002527;28;20083;-79
2022/01/17 00:44:21;;;;;;;0.47;0.47;;;;;;;;;;4997883;28;20053;-80
2022/01/17 00:46:47;;;;;;;1.95;0.95;;;;;;;;;;4997495;28;20128;-81
2022/01/17 00:49:13;;;;;;;0.63;0.63;;;;;;;;;;4998432;28;20049;-80
2022/01/17 00:51:41;;;;;;;0.43;0.43;;;;;;;;;;4997508;28;20320;-79
2022/01/17 00:54:07;;;;;;;0.32;0.32;;;;;;;;;;4997978;28;20505;-80
2022/01/17 00:56:33;;;;;;;0.63;0.63;;;;;;;;;;4996910;28;20037;-81
2022/01/17 00:58:59;;;;;;;1.40;0.97;;;;;;;;;;4998660;28;20615;-80
2022/01/17 01:01:25;;;;;;;0.75;0.75;;;;;;;;;;4998448;28;20350;-80
2022/01/17 01:03:51;;;;;;;1.08;0.57;;;;;;;;;;4996832;28;20124;-79
2022/01/17 01:06:17;;;;;;;0.32;0.32;;;;;;;;;;4997452;28;20026;-79
2022/01/17 01:08:43;;;;;;;1.27;1.23;;;;;;;;;;4993819;28;20033;-79
2022/01/17 01:11:09;;;;;;;0.52;0.52;;;;;;;;;;4991135;28;20828;-78
2022/01/17 01:13:36;;;;;;;0.60;0.60;;;;;;;;;;4999595;28;20320;-78
2022/01/17 01:29:16;;;;;;;0.35;0.35;;;;;;;;;;4998569;28;20108;-78
2022/01/17 01:34:10;;;;;;;1.13;1.13;;;;;;;;;;4999913;28;20026;-77
2022/01/17 01:36:36;;;;;;;0.50;0.50;;;;;;;;;;4997165;28;20014;-78
2022/01/17 01:39:04;;;;;;;0.68;0.68;;;;;;;;;;4993109;28;20076;-78
2022/01/17 01:41:36;;;;;;;0.38;0.38;;;;;;;;;;5001229;28;20057;-78
2022/01/17 01:44:03;;;;;;;1.10;0.75;;;;;;;;;;4995947;28;20484;-78
2022/01/17 01:46:29;;;;;;;0.40;0.40;;;;;;;;;;4999096;28;20057;-78
2022/01/17 01:48:55;;;;;;;0.37;0.37;;;;;;;;;;4997091;28;20097;-78
2022/01/17 01:51:21;;;;;;;1.20;1.10;;;;;;;;;;4995706;28;20034;-78
2022/01/17 01:53:47;;;;;;;1.17;0.68;;;;;;;;;;4997237;28;20048;-78
2022/01/17 01:56:14;;;;;;;0.30;0.30;;;;;;;;;;4999752;28;20081;-78
2022/01/17 01:58:40;;;;;;;0.55;0.55;;;;;;;;;;5000139;28;20316;-78
2022/01/17 02:01:06;;;;;;;0.15;0.15;;;;;;;;;;5002941;28;20022;-78
2022/01/17 02:03:32;;;;;;;3.53;0.93;;;;;;;;;;4995049;28;20029;-78
2022/01/17 02:05:58;;;;;;;1.45;1.35;;;;;;;;;;5002159;28;20062;-79
2022/01/17 02:08:24;;;;;;;0.68;0.55;;;;;;;;;;5005629;28;20036;-79
2022/01/17 02:10:51;;;;;;;0.20;0.20;;;;;;;;;;5006369;28;20045;-78
2022/01/17 02:13:17;;;;;;;0.47;0.47;;;;;;;;;;5002631;28;20115;-80
2022/01/17 02:15:45;;;;;;;0.10;0.10;;;;;;;;;;5000864;28;20076;-79
2022/01/17 02:18:18;;;;;;;0.50;0.50;;;;;;;;;;4999952;28;20842;-79
2022/01/17 02:20:58;;;;;;;0.32;0.32;;;;;;;;;;4999894;28;20029;-79
2022/01/17 02:23:24;;;;;;;1.10;0.82;;;;;;;;;;5000541;28;20026;-79
2022/01/17 02:25:50;;;;;;;0.20;0.20;;;;;;;;;;5001771;28;20673;-80
2022/01/17 02:28:16;;;;;;;0.50;0.30;;;;;;;;;;5001410;28;20113;-80
2022/01/17 02:30:43;;;;;;;0.10;0.10;;;;;;;;;;5001408;28;20042;-79
2022/01/17 02:33:09;;;;;;;1.10;0.93;;;;;;;;;;5005700;28;20036;-78
2022/01/17 02:35:35;;;;;;;0.10;0.10;;;;;;;;;;4995042;28;20783;-79
2022/01/17 02:38:01;;;;;;;0.50;0.50;;;;;;;;;;5005128;28;20044;-79
2022/01/17 02:40:27;;;;;;;6.32;1.17;;;;;;;;;;5004861;28;20052;-79
2022/01/17 02:43:06;;;;;;;0.40;0.40;;;;;;;;;;5004909;28;20134;-80
2022/01/17 02:46:24;;;;;;;0.28;0.28;;;;;;;;;;5000592;28;20049;-79
2022/01/17 02:48:23;;;;;;;0.10;0.10;;;;;;;;;;5001753;28;20099;-81
2022/01/17 02:50:49;;;;;;;0.10;0.10;;;;;;;;;;5000443;28;22069;-80
2022/01/17 02:53:16;;;;;;;3.75;0.88;;;;;;;;;;5002551;28;20037;-80
2022/01/17 02:56:01;;;;;;;3.33;1.27;;;;;;;;;;5001265;28;20033;-80
2022/01/17 02:58:27;;;;;;;0.65;0.38;;;;;;;;;;5002166;28;20032;-82
2022/01/17 03:00:55;;;;;;;4.68;0.77;;;;;;;;;;5002719;28;20132;-81
2022/01/17 03:03:22;;;;;;;0.10;0.10;;;;;;;;;;5000640;28;20091;-81
2022/01/17 03:05:48;;;;;;;0.30;0.30;;;;;;;;;;4992878;28;20053;-81
2022/01/17 03:08:15;;;;;;;0.30;0.30;;;;;;;;;;4999687;28;20115;-79
2022/01/17 03:10:43;;;;;;;0.63;0.20;;;;;;;;;;5004392;28;20033;-81
2022/01/17 03:13:13;;;;;;;0.55;0.55;;;;;;;;;;5005226;28;20037;-81
2022/01/17 03:15:40;;;;;;;2.08;1.25;;;;;;;;;;5000229;28;20027;-80
2022/01/17 03:18:06;;;;;;;0.70;0.60;;;;;;;;;;4993761;28;20065;-81
2022/01/17 03:20:34;;;;;;;0.22;0.22;;;;;;;;;;5001198;28;20036;-80
2022/01/17 03:23:00;;;;;;;0.10;0.10;;;;;;;;;;4992334;28;20132;-80
2022/01/17 03:25:27;;;;;;;0.20;0.20;;;;;;;;;;5000168;28;20036;-80
2022/01/17 03:27:53;;;;;;;0.20;0.20;;;;;;;;;;5000239;28;20088;-81
2022/01/17 03:30:19;;;;;;;2.90;1.15;;;;;;;;;;4990218;28;20037;-81
2022/01/17 03:32:45;;;;;;;0.25;0.25;;;;;;;;;;5000885;28;20042;-81
2022/01/17 03:35:11;;;;;;;0.23;0.23;;;;;;;;;;5004914;28;20026;-80
2022/01/17 03:37:37;;;;;;;1.20;0.80;;;;;;;;;;5000605;28;20065;-81
2022/01/17 03:40:04;;;;;;;0.67;0.60;;;;;;;;;;5000961;28;21139;-78
2022/01/17 03:42:30;;;;;;;0.10;0.10;;;;;;;;;;5003096;28;20026;-78
2022/01/17 03:44:56;;;;;;;0.55;0.55;;;;;;;;;;5001264;28;20412;-78
2022/01/17 03:47:22;;;;;;;0.77;0.60;;;;;;;;;;5001171;28;20061;-78
2022/01/17 03:49:48;;;;;;;0.20;0.20;;;;;;;;;;5001152;28;20101;-79
2022/01/17 03:52:14;;;;;;;0.10;0.10;;;;;;;;;;4999866;28;20206;-79
2022/01/17 03:54:40;;;;;;;0.70;0.32;;;;;;;;;;5000368;28;20280;-79
2022/01/17 03:57:06;;;;;;;0.25;0.25;;;;;;;;;;5000445;28;20465;-77
2022/01/17 03:59:32;;;;;;;3.83;1.53;;;;;;;;;;4992621;28;20144;-78
2022/01/17 04:01:58;;;;;;;0.20;0.20;;;;;;;;;;5000644;28;20488;-79
2022/01/17 04:04:25;;;;;;;0.30;0.30;;;;;;;;;;4999628;28;20456;-78
2022/01/17 04:06:51;;;;;;;0.55;0.55;;;;;;;;;;4999786;28;20650;-80
2022/01/17 04:09:17;;;;;;;0.52;0.43;;;;;;;;;;5001999;28;20030;-79
2022/01/17 04:11:43;;;;;;;0.20;0.20;;;;;;;;;;5005178;28;20064;-79
2022/01/17 04:14:10;;;;;;;0.27;0.27;;;;;;;;;;5002155;28;20034;-79
2022/01/17 04:16:36;;;;;;;;;;;;;;;;;;4998755;28;20756;-79
2022/01/17 04:19:02;;;;;;;0.10;0.10;;;;;;;;;;4999450;28;19917;-80
2022/01/17 04:21:33;;;;;;;0.25;0.25;;;;;;;;;;4999690;28;21568;-79
2022/01/17 04:23:59;;;;;;;0.73;0.73;;;;;;;;;;4999470;28;20497;-78
2022/01/17 04:26:25;;;;;;;0.20;0.20;;;;;;;;;;4993459;28;20034;-79
2022/01/17 04:28:51;;;;;;;0.63;0.43;;;;;;;;;;4998927;28;20841;-78
2022/01/17 04:31:17;;;;;;;0.30;0.30;;;;;;;;;;5000356;28;20628;-79
2022/01/17 04:33:43;;;;;;;0.30;0.30;;;;;;;;;;4996398;28;20030;-77
2022/01/17 04:36:09;;;;;;;0.22;0.22;;;;;;;;;;5002252;28;20037;-78
2022/01/17 04:38:36;;;;;;;0.20;0.20;;;;;;;;;;5000824;28;20490;-79
2022/01/17 04:41:06;;;;;;;3.17;0.77;;;;;;;;;;5003718;28;20038;-79
2022/01/17 04:46:08;;;;;;;0.35;0.35;;;;;;;;;;4995437;28;20050;-78
2022/01/17 04:48:34;;;;;;;0.40;0.40;;;;;;;;;;4999472;28;20033;-78
2022/01/17 04:51:00;;;;;;;0.10;0.10;;;;;;;;;;4998931;28;20619;-77
2022/01/17 04:53:30;;;;;;;1.47;0.97;;;;;;;;;;4999168;28;20041;-78
2022/01/17 04:55:56;;;;;;;0.35;0.35;;;;;;;;;;5000304;28;20034;-78
2022/01/17 04:58:22;;;;;;;0.10;0.10;;;;;;;;;;4999078;28;20475;-79
2022/01/17 05:00:49;;;;;;;2.33;1.97;;;;;;;;;;4999533;28;20022;-79
2022/01/17 05:03:22;;;;;;;0.30;0.30;;;;;;;;;;4998697;28;20068;-80
2022/01/17 05:05:48;;;;;;;0.40;0.40;;;;;;;;;;4999006;28;20513;-78
2022/01/17 05:08:15;;;;;;;0.22;0.22;;;;;;;;;;5000544;28;20026;-78
2022/01/17 05:10:50;;;;;;;;;;;;;;;;;;5002715;28;20026;-78
2022/01/17 05:13:20;;;;;;;1.48;1.38;;;;;;;;;;4994821;28;19910;-80
2022/01/17 05:15:51;;;;;;;0.57;0.57;;;;;;;;;;4997119;28;20498;-80
2022/01/17 05:21:02;;;;;;;0.60;0.60;;;;;;;;;;4999705;28;20045;-79
2022/01/17 05:23:28;;;;;;;0.63;0.63;;;;;;;;;;4995435;28;20494;-80
2022/01/17 05:25:54;;;;;;;0.20;0.20;;;;;;;;;;4998972;28;20037;-79
2022/01/17 05:28:21;;;;;;;0.93;0.47;;;;;;;;;;4998589;28;20076;-80
2022/01/17 05:30:47;;;;;;;1.00;0.52;;;;;;;;;;5003227;28;20446;-80
2022/01/17 05:33:13;;;;;;;0.50;0.50;;;;;;;;;;5002802;28;20501;-79
2022/01/17 05:35:39;;;;;;;1.65;0.45;;;;;;;;;;5000115;28;23586;-81
2022/01/17 05:38:05;;;;;;;0.30;0.30;;;;;;;;;;5005380;28;20054;-79
2022/01/17 05:40:31;;;;;;;1.73;0.77;;;;;;;;;;5003039;28;20766;-79
2022/01/17 05:42:57;;;;;;;0.20;0.20;;;;;;;;;;5005488;28;20214;-80
2022/01/17 05:45:23;;;;;;;0.10;0.10;;;;;;;;;;5005748;28;20073;-79
2022/01/17 05:47:49;;;;;;;0.10;0.10;;;;;;;;;;5003031;28;20033;-80
2022/01/17 05:50:15;;;;;;;0.20;0.20;;;;;;;;;;5003260;28;20505;-79
2022/01/17 05:52:42;;;;;;;0.90;0.82;;;;;;;;;;5003033;28;20050;-79
2022/01/17 05:55:09;;;;;;;0.70;0.60;;;;;;;;;;5002274;28;20026;-78
2022/01/17 05:57:35;;;;;;;0.10;0.10;;;;;;;;;;5002070;28;20128;-80
2022/01/17 06:00:03;;;;;;;0.20;0.20;;;;;;;;;;5004816;28;20289;-80
2022/01/17 06:02:29;;;;;;;0.20;0.20;;;;;;;;;;5001235;28;20476;-79
2022/01/17 06:04:55;;;;;;;1.20;1.17;;;;;;;;;;5002842;28;20034;-85
2022/01/17 06:07:21;;;;;;;0.70;0.70;;;;;;;;;;5000945;28;20030;-80
2022/01/17 06:09:47;;;;;;;1.17;0.97;;;;;;;;;;5005576;28;20033;-81
2022/01/17 06:12:13;;;;;;;0.20;0.20;;;;;;;;;;5001030;28;20046;-82
2022/01/17 06:14:39;;;;;;;0.10;0.10;;;;;;;;;;5005546;28;20026;-84
2022/01/17 06:17:06;;;;;;;0.25;0.25;;;;;;;;;;5002685;28;20026;-84
2022/01/17 06:19:32;;;;;;;0.10;0.10;;;;;;;;;;5003490;28;20184;-83
2022/01/17 06:21:58;;;;;;;0.63;0.63;;;;;;;;;;5001385;28;20080;-80
2022/01/17 06:24:24;;;;;;;0.30;0.30;;;;;;;;;;5002032;28;20037;-81
2022/01/17 06:26:50;;;;;;;0.15;0.15;;;;;;;;;;4997204;28;20088;-83
2022/01/17 06:29:16;;;;;;;0.60;0.55;;;;;;;;;;5005413;28;20061;-84
2022/01/17 06:31:43;;;;;;;2.88;1.65;;;;;;;;;;5002833;28;20048;-84
2022/01/17 06:34:10;;;;;;;0.20;0.20;;;;;;;;;;5005277;28;20033;-86
2022/01/17 06:36:36;;;;;;;0.70;0.70;;;;;;;;;;5005366;28;20052;-85
2022/01/17 06:39:04;;;;;;;0.55;0.55;;;;;;;;;;5003140;28;20076;-81
2022/01/17 06:41:30;;;;;;;0.13;0.13;;;;;;;;;;5005230;28;20129;-82
2022/01/17 06:43:57;;;;;;;0.20;0.20;;;;;;;;;;5006740;28;20113;-81
2022/01/17 06:46:23;;;;;;;0.38;0.38;;;;;;;;;;5006003;28;20093;-82
2022/01/17 06:48:49;;;;;;;0.40;0.40;;;;;;;;;;5006501;28;20033;-84
2022/01/17 06:51:15;;;;;;;1.25;0.70;;;;;;;;;;5006283;28;20034;-77
2022/01/17 06:53:42;;;;;;;1.20;1.15;;;;;;;;;;5006411;28;20025;-78
2022/01/17 06:56:08;;;;;;;0.10;0.10;;;;;;;;;;5006868;28;20029;-80
2022/01/17 06:58:36;;;;;;;1.52;0.45;;;;;;;;;;5006281;28;20041;-79
2022/01/17 07:01:02;;;;;;;0.25;0.25;;;;;;;;;;5006232;28;20205;-79
2022/01/17 07:03:28;;;;;;;1.33;1.23;;;;;;;;;;5003314;28;20502;-80
2022/01/17 07:05:54;;;;;;;0.52;0.50;;;;;;;;;;5005988;28;20037;-82
2022/01/17 07:08:20;;;;;;;0.20;0.20;;;;;;;;;;4989375;28;20042;-80
2022/01/17 07:10:46;;;;;;;0.20;0.20;;;;;;;;;;5006318;28;20045;-81
2022/01/17 07:13:12;;;;;;;0.10;0.10;;;;;;;;;;5006168;28;20125;-82
2022/01/17 07:15:38;;;;;;;0.55;0.55;;;;;;;;;;5006262;28;20025;-82
2022/01/17 07:18:06;;;;;;;0.70;0.70;;;;;;;;;;5005870;28;20049;-81
2022/01/17 07:20:32;;;;;;;0.22;0.22;;;;;;;;;;5005998;28;20132;-81
2022/01/17 07:22:58;;;;;;;0.80;0.45;;;;;;;;;;5006149;28;20578;-81
2022/01/17 07:25:24;;;;;;;0.75;0.75;;;;;;;;;;5005540;28;20068;-81
2022/01/17 07:27:51;;;;;;;0.20;0.20;;;;;;;;;;5004553;28;20033;-81
2022/01/17 07:30:18;;;;;;;0.65;0.65;;;;;;;;;;4991619;28;20026;-81
2022/01/17 07:32:44;;;;;;;0.20;0.20;;;;;;;;;;5003751;28;20046;-81
2022/01/17 07:35:10;;;;;;;0.20;0.20;;;;;;;;;;5006424;28;20115;-81
2022/01/17 07:37:37;;;;;;;0.30;0.30;;;;;;;;;;5001231;28;20037;-82
2022/01/17 07:40:04;;;;;;;0.20;0.20;;;;;;;;;;4995490;28;20029;-81
2022/01/17 07:42:30;;;;;;;0.70;0.30;;;;;;;;;;4994894;28;20069;-81
2022/01/17 07:44:58;;;;;;;1.33;1.23;;;;;;;;;;4995927;28;20022;-80
2022/01/17 07:47:41;;;;;;;4.18;1.30;;;;;;;;;;5005287;28;20124;-81
2022/01/17 07:50:07;;;;;;;0.32;0.32;;;;;;;;;;5004698;28;20021;-81
2022/01/17 07:52:34;;;;;;;0.60;0.60;;;;;;;;;;4999995;28;20599;-81
2022/01/17 07:55:00;;;;;;;0.75;0.75;;;;;;;;;;5001385;28;20543;-82
2022/01/17 07:57:26;;;;;;;1.23;1.20;;;;;;;;;;5005517;28;20147;-81
2022/01/17 07:59:52;;;;;;;0.20;0.20;;;;;;;;;;5004738;28;20568;-80
2022/01/17 08:02:18;;;;;;;0.77;0.77;;;;;;;;;;5004625;28;20026;-80
2022/01/17 08:04:44;;;;;;;0.10;0.10;;;;;;;;;;4999503;28;20033;-83
2022/01/17 08:07:10;;;;;;;0.65;0.65;;;;;;;;;;5004518;28;20391;-83
2022/01/17 08:09:37;;;;;;;0.20;0.20;;;;;;;;;;5004308;28;20117;-82
2022/01/17 08:12:04;;;;;;;0.20;0.20;;;;;;;;;;5004362;28;20300;-82
2022/01/17 08:14:30;;;;;;;0.35;0.35;;;;;;;;;;5004594;28;20033;-82
2022/01/17 08:16:57;;;;;;;0.17;0.17;;;;;;;;;;5004604;28;20105;-82
2022/01/17 08:19:24;;;;;;;0.30;0.30;;;;;;;;;;5004299;28;20121;-82
2022/01/17 08:21:54;;;;;;;3.50;0.50;;;;;;;;;;5004146;28;20066;-82
2022/01/17 08:24:20;;;;;;;0.20;0.20;;;;;;;;;;5002718;28;20033;-82
2022/01/17 08:26:46;;;;;;;0.10;0.10;;;;;;;;;;5004456;28;20133;-82
2022/01/17 08:29:13;;;;;;;0.50;0.50;;;;;;;;;;5005014;28;20022;-82
2022/01/17 08:31:39;;;;;;;0.20;0.20;;;;;;;;;;5002952;28;20045;-83
2022/01/17 08:34:05;;;;;;;0.38;0.38;;;;;;;;;;5004693;28;20045;-83
2022/01/17 08:36:31;;;;;;;1.20;0.40;;;;;;;;;;5004636;28;20564;-82
2022/01/17 08:38:58;;;;;;;0.20;0.20;;;;;;;;;;5003217;28;20033;-83
2022/01/17 08:41:24;;;;;;;0.20;0.20;;;;;;;;;;5004927;28;20038;-83
2022/01/17 08:43:50;;;;;;;0.52;0.52;;;;;;;;;;4999034;28;20443;-83
2022/01/17 08:46:16;;;;;;;0.10;0.10;;;;;;;;;;5004191;28;20104;-83
2022/01/17 08:48:42;;;;;;;0.30;0.30;;;;;;;;;;5002735;28;20034;-83
2022/01/17 08:51:09;;;;;;;0.57;0.57;;;;;;;;;;5004329;28;20569;-83
2022/01/17 08:53:35;;;;;;;1.40;0.93;;;;;;;;;;5004538;28;20033;-83
2022/01/17 08:56:01;;;;;;;0.52;0.52;;;;;;;;;;5005147;28;20030;-83
2022/01/17 08:58:27;;;;;;;0.65;0.65;;;;;;;;;;5004512;28;20068;-83
2022/01/17 09:00:56;;;;;;;1.90;0.93;;;;;;;;;;5002614;28;20032;-84
2022/01/17 09:03:22;;;;;;;0.13;0.13;;;;;;;;;;5003816;28;20645;-83
2022/01/17 09:05:48;;;;;;;0.87;0.87;;;;;;;;;;5002177;28;20033;-83
2022/01/17 09:08:16;;;;;;;0.13;0.13;;;;;;;;;;5004350;28;20034;-83
2022/01/17 09:27:42;;;;;;;0.17;0.17;;;;;;;;;;5098363;27;20387;-83
2022/01/17 09:30:09;;;;;;;2.05;1.27;;;;;;;;;;5081381;28;20139;-84
2022/01/17 09:32:36;;;;;;;0.10;0.10;;;;;;;;;;5069058;28;20214;-84
2022/01/17 09:35:02;;;;;;;0.25;0.25;;;;;;;;;;5069887;28;20074;-84
2022/01/17 09:37:28;;;;;;;0.10;0.10;;;;;;;;;;5080824;28;20032;-84
2022/01/17 09:39:54;;;;;;;0.98;0.98;;;;;;;;;;5078948;28;20256;-84
2022/01/17 09:42:20;;;;;;;0.10;0.10;;;;;;;;;;5080846;28;20044;-84
2022/01/17 09:44:46;;;;;;;0.28;0.28;;;;;;;;;;5081481;28;20017;-84
2022/01/17 09:47:14;;;;;;;0.20;0.20;;;;;;;;;;5071493;28;20040;-84
2022/01/17 09:49:44;;;;;;;0.85;0.50;;;;;;;;;;5075381;28;20024;-84
2022/01/17 09:54:59;;;;;;;0.50;0.50;;;;;;;;;;5068262;28;20042;-84
2022/01/17 09:57:27;;;;;;;0.47;0.47;;;;;;;;;;5075104;28;20488;-84
2022/01/17 09:59:53;;;;;;;0.00;0.00;;;;;;;;;;5065990;28;20040;-84
2022/01/17 10:02:19;;;;;;;0.20;0.20;;;;;;;;;;5068863;28;20021;-84
2022/01/17 10:04:45;;;;;;;0.17;0.17;;;;;;;;;;5069060;28;20472;-84
2022/01/17 10:07:11;;;;;;;0.08;0.08;;;;;;;;;;5068991;28;20361;-84
2022/01/17 10:09:39;;;;;;;0.50;0.40;;;;;;;;;;5065364;28;20032;-84
2022/01/17 10:12:07;;;;;;;0.88;0.88;;;;;;;;;;5080839;28;20059;-84
2022/01/17 10:14:36;;;;;;;0.82;0.82;;;;;;;;;;5079885;28;20024;-84
2022/01/17 10:17:06;;;;;;;0.63;0.55;;;;;;;;;;5076300;28;20036;-84
2022/01/17 10:19:32;;;;;;;2.17;0.80;;;;;;;;;;5080709;28;20026;-84
2022/01/17 10:22:01;;;;;;;1.35;1.25;;;;;;;;;;5080756;28;20028;-84
2022/01/17 10:29:58;;;;;;;0.22;0.22;;;;;;;;;;5067250;28;20043;-85
2022/01/17 10:35:13;;;;;;;0.13;0.13;;;;;;;;;;5067424;28;20040;-85
2022/01/17 10:37:40;;;;;;;0.85;0.55;;;;;;;;;;5066957;28;20582;-84
2022/01/17 10:40:15;;;;;;;0.10;0.10;;;;;;;;;;5066585;28;20055;-84
2022/01/17 10:42:43;;;;;;;0.60;0.45;;;;;;;;;;5067026;28;20115;-85
2022/01/17 10:45:09;;;;;;;0.08;0.08;;;;;;;;;;5050676;28;20029;-84
2022/01/17 10:47:39;;;;;;;0.10;0.10;;;;;;;;;;5067072;28;20056;-85
2022/01/17 10:50:07;;;;;;;0.73;0.73;;;;;;;;;;5064935;28;20773;-84
2022/01/17 10:52:37;;;;;;;0.75;0.75;;;;;;;;;;5066458;28;20033;-84
2022/01/17 10:55:06;;;;;;;1.67;0.93;;;;;;;;;;5066542;28;20071;-85
2022/01/17 10:57:36;;;;;;;0.55;0.55;;;;;;;;;;5066548;28;20036;-85
2022/01/17 11:00:04;;;;;;;1.08;0.50;;;;;;;;;;5045945;28;20162;-85
2022/01/17 11:02:31;;;;;;;1.35;1.08;;;;;;;;;;5054596;28;20029;-84
2022/01/17 11:05:01;;;;;;;2.55;0.75;;;;;;;;;;5062132;28;20036;-84
2022/01/17 11:07:28;;;;;;;0.10;0.10;;;;;;;;;;5066192;28;20024;-84
2022/01/17 11:09:57;;;;;;;4.40;1.63;;;;;;;;;;5066494;28;20413;-84
2022/01/17 11:12:28;;;;;;;0.25;0.25;;;;;;;;;;5065923;28;20504;-84
2022/01/17 11:14:57;;;;;;;0.28;0.28;;;;;;;;;;5065128;28;20537;-85
2022/01/17 11:17:37;;;;;;;0.30;0.30;;;;;;;;;;5065520;28;20047;-85
2022/01/17 11:20:07;;;;;;;0.47;0.40;;;;;;;;;;5065542;28;20403;-85
2022/01/17 11:22:34;;;;;;;1.02;0.60;;;;;;;;;;5061839;28;20036;-85
2022/01/17 11:25:00;;;;;;;1.38;0.57;;;;;;;;;;5054052;28;20029;-85
2022/01/17 11:27:27;;;;;;;0.17;0.17;;;;;;;;;;5065595;28;20532;-85
2022/01/17 11:29:53;;;;;;;0.10;0.10;;;;;;;;;;5066411;28;20028;-85
2022/01/17 11:32:19;;;;;;;0.45;0.45;;;;;;;;;;5065445;28;20485;-85
2022/01/17 11:34:45;;;;;;;0.25;0.22;;;;;;;;;;5065249;28;20585;-85
2022/01/17 11:37:12;;;;;;;0.20;0.20;;;;;;;;;;5065353;28;20040;-85
2022/01/17 11:39:45;;;;;;;0.50;0.50;;;;;;;;;;5064329;28;20040;-85
2022/01/17 11:42:40;;;;;;;1.67;0.38;;;;;;;;;;5065187;28;20068;-85
2022/01/17 11:45:26;;;;;;;0.30;0.30;;;;;;;;;;5052207;28;20040;-85
2022/01/17 11:47:54;;;;;;;0.57;0.57;;;;;;;;;;5065699;28;20025;-85
2022/01/17 11:50:33;;;;;;;0.60;0.55;;;;;;;;;;5063513;28;20039;-85
2022/01/17 11:53:20;;;;;;;0.25;0.25;;;;;;;;;;5064760;28;20031;-85
2022/01/17 11:55:47;;;;;;;0.10;0.10;;;;;;;;;;4993850;28;20124;-84
2022/01/17 11:58:19;;;;;;;1.23;0.75;;;;;;;;;;4988644;28;20063;-85
2022/01/17 12:00:46;;;;;;;0.77;0.77;;;;;;;;;;4986370;28;20038;-85
2022/01/17 12:03:18;;;;;;;1.02;0.30;;;;;;;;;;4986440;28;20027;-85
2022/01/17 12:05:44;;;;;;;0.20;0.20;;;;;;;;;;4987705;28;20042;-85
2022/01/17 12:08:11;;;;;;;0.38;0.38;;;;;;;;;;4988592;28;20542;-85
2022/01/17 12:10:37;;;;;;;;;;;;;;;;;;4989314;28;20039;-85
2022/01/17 12:13:09;;;;;;;1.08;0.95;;;;;;;;;;4988900;28;20016;-85
2022/01/17 12:15:54;;;;;;;0.25;0.25;;;;;;;;;;4985285;28;20141;-85
2022/01/17 12:18:28;;;;;;;0.85;0.85;;;;;;;;;;4985376;28;20038;-85
2022/01/17 12:20:54;;;;;;;2.20;1.50;;;;;;;;;;4987527;28;20045;-85
2022/01/17 12:23:25;;;;;;;2.50;1.20;;;;;;;;;;4988226;28;20042;-85
2022/01/17 12:25:51;;;;;;;1.27;1.23;;;;;;;;;;4988178;28;20124;-85
2022/01/17 12:28:17;;;;;;;0.50;0.50;;;;;;;;;;4988447;28;20041;-85
2022/01/17 12:30:47;;;;;;;1.42;0.60;;;;;;;;;;4985736;28;20034;-85
2022/01/17 12:33:13;;;;;;;1.30;1.20;;;;;;;;;;5026038;28;20033;-85
2022/01/17 12:35:45;;;;;;;1.05;0.70;;;;;;;;;;5051613;28;20443;-85
2022/01/17 12:38:14;;;;;;;0.20;0.20;;;;;;;;;;5062532;28;20031;-85
2022/01/17 12:40:41;;;;;;;0.52;0.52;;;;;;;;;;5059399;28;20036;-84
2022/01/17 12:43:07;;;;;;;;;;;;;;;;;;5054008;28;20024;-84
2022/01/17 12:45:39;;;;;;;0.40;0.35;;;;;;;;;;5064501;28;20022;-85
2022/01/17 12:48:13;;;;;;;0.30;0.30;;;;;;;;;;5062618;28;20075;-85
2022/01/17 12:50:40;;;;;;;1.63;1.52;;;;;;;;;;5063907;28;20033;-85
2022/01/17 12:53:06;;;;;;;;;;;;;;;;;;5064313;28;20029;-85
2022/01/17 12:55:33;;;;;;;2.50;1.27;;;;;;;;;;5063976;28;20289;-85
2022/01/17 12:57:59;;;;;;;0.77;0.70;;;;;;;;;;5064344;28;20096;-85
2022/01/17 13:00:29;;;;;;;1.65;1.08;;;;;;;;;;5064343;28;20032;-85
2022/01/17 13:02:56;;;;;;;0.43;0.43;;;;;;;;;;5064776;28;20103;-85
2022/01/17 13:05:22;;;;;;;;;;;;;;;;;;5064229;28;20029;-85
2022/01/17 13:07:48;;;;;;;0.85;0.85;;;;;;;;;;5063931;28;19909;-85
2022/01/17 13:10:14;;;;;;;0.37;0.37;;;;;;;;;;5063797;28;20432;-84
2022/01/17 13:12:41;;;;;;;0.20;0.20;;;;;;;;;;5064170;28;20361;-85
2022/01/17 13:15:08;;;;;;;1.25;0.85;;;;;;;;;;5047678;28;20167;-85
2022/01/17 13:17:35;;;;;;;0.45;0.38;;;;;;;;;;5063228;28;20035;-85
2022/01/17 13:20:01;;;;;;;0.75;0.75;;;;;;;;;;5063607;28;20522;-85
2022/01/17 13:22:29;;;;;;;0.75;0.75;;;;;;;;;;5063727;28;20040;-85
2022/01/17 13:25:03;;;;;;;0.47;0.47;;;;;;;;;;5063799;28;20496;-85
2022/01/17 13:27:34;;;;;;;4.22;0.75;;;;;;;;;;5063574;28;20976;-85
2022/01/17 13:30:11;;;;;;;1.48;1.27;;;;;;;;;;5061053;28;20528;-84
2022/01/17 13:32:38;;;;;;;1.38;1.27;;;;;;;;;;5063429;28;20054;-85
2022/01/17 13:35:11;;;;;;;1.60;1.27;;;;;;;;;;5063674;28;20044;-85
2022/01/17 13:37:38;;;;;;;0.75;0.75;;;;;;;;;;5063938;28;20036;-85
2022/01/17 13:40:04;;;;;;;;;;;;;;;;;;5064577;28;20028;-85
2022/01/17 13:42:30;;;;;;;0.98;0.98;;;;;;;;;;5048373;28;19916;-84
2022/01/17 13:44:56;;;;;;;16.27;1.33;;;;;;;;;;5064711;28;20417;-85
2022/01/17 13:47:22;;;;;;;2.55;0.85;;;;;;;;;;5063849;28;20028;-85
2022/01/17 13:49:49;;;;;;;1.07;0.53;;;;;;;;;;5063874;28;20183;-85
2022/01/17 13:52:16;;;;;;;1.95;1.77;;;;;;;;;;5063633;28;20086;-85
2022/01/17 13:54:47;;;;;;;4.18;1.10;;;;;;;;;;5064016;28;20408;-85
2022/01/17 13:57:17;;;;;;;0.70;0.70;;;;;;;;;;5064041;28;20439;-85
2022/01/17 13:59:59;;;;;;;0.82;0.82;;;;;;;;;;5048915;28;20047;-85
2022/01/17 14:02:27;;;;;;;2.83;2.03;;;;;;;;;;5064433;28;20024;-85
2022/01/17 14:04:55;;;;;;;5.05;1.00;;;;;;;;;;5067132;28;20028;-85
2022/01/17 14:07:24;;;;;;;0.50;0.50;;;;;;;;;;5066983;28;20107;-85
2022/01/17 14:09:50;;;;;;;0.70;0.70;;;;;;;;;;5067094;28;20086;-85
2022/01/17 14:12:17;;;;;;;0.97;0.97;;;;;;;;;;5065658;28;20168;-85
2022/01/17 14:14:51;;;;;;;2.00;0.80;;;;;;;;;;5052438;28;20259;-85
2022/01/17 14:17:30;;;;;;;1.30;1.27;;;;;;;;;;5065274;28;20544;-85
2022/01/17 14:20:10;;;;;;;0.65;0.65;;;;;;;;;;5066737;28;20036;-85
2022/01/17 14:22:52;;;;;;;1.15;1.05;;;;;;;;;;5066977;28;20444;-85
2022/01/17 14:25:19;;;;;;;2.58;1.55;;;;;;;;;;5066895;28;20141;-85
2022/01/17 14:27:58;;;;;;;0.90;0.85;;;;;;;;;;5067277;28;20045;-85
2022/01/17 14:30:31;;;;;;;1.15;1.13;;;;;;;;;;5066839;28;20060;-84
2022/01/17 14:33:14;;;;;;;0.57;0.57;;;;;;;;;;5067477;28;20132;-85
2022/01/17 14:35:58;;;;;;;0.10;0.10;;;;;;;;;;5066971;28;20082;-85
2022/01/17 14:38:24;;;;;;;0.63;0.63;;;;;;;;;;5055885;28;20040;-84
2022/01/17 14:40:51;;;;;;;0.68;0.68;;;;;;;;;;5061705;28;20025;-85
2022/01/17 14:43:17;;;;;;;0.10;0.10;;;;;;;;;;5060426;28;20056;-85
2022/01/17 14:45:50;;;;;;;0.17;0.17;;;;;;;;;;5052288;28;20044;-85
2022/01/17 14:48:17;;;;;;;0.20;0.20;;;;;;;;;;5066563;28;20490;-85
2022/01/17 14:50:43;;;;;;;0.10;0.10;;;;;;;;;;5051263;28;20033;-85
2022/01/17 14:53:14;;;;;;;0.10;0.10;;;;;;;;;;5047835;28;20048;-85
2022/01/17 14:59:28;;;;;;;0.25;0.25;;;;;;;;;;5053019;28;20377;-84
2022/01/17 15:01:25;;;;;;;0.10;0.10;;;;;;;;;;5066191;28;20052;-85
2022/01/17 15:03:53;;;;;;;0.20;0.20;;;;;;;;;;5066068;28;20077;-85
2022/01/17 15:06:19;;;;;;;0.10;0.10;;;;;;;;;;5065702;28;20039;-85
2022/01/17 15:08:48;;;;;;;0.10;0.10;;;;;;;;;;5066268;28;20104;-85
2022/01/17 15:11:14;;;;;;;0.10;0.10;;;;;;;;;;5056339;28;20069;-85
2022/01/17 15:13:40;;;;;;;0.45;0.43;;;;;;;;;;5058945;28;20036;-85
2022/01/17 15:16:06;;;;;;;0.10;0.10;;;;;;;;;;5065485;28;20041;-85
2022/01/17 15:18:32;;;;;;;0.00;0.00;;;;;;;;;;5050169;28;20027;-85
2022/01/17 15:20:58;;;;;;;0.30;0.30;;;;;;;;;;5066007;28;20028;-85
2022/01/17 15:23:25;;;;;;;0.00;0.00;;;;;;;;;;5065373;28;20060;-85
2022/01/17 15:25:51;;;;;;;0.10;0.10;;;;;;;;;;5065314;28;20051;-85
2022/01/17 15:28:17;;;;;;;0.10;0.10;;;;;;;;;;5065092;28;20033;-84
2022/01/17 15:30:44;;;;;;;0.10;0.10;;;;;;;;;;5065336;28;20017;-85
2022/01/17 15:33:10;;;;;;;0.20;0.20;;;;;;;;;;5065659;28;20051;-85
2022/01/17 15:35:36;;;;;;;0.20;0.20;;;;;;;;;;5065688;28;20039;-85
2022/01/17 15:38:02;;;;;;;0.20;0.20;;;;;;;;;;5065308;28;20443;-84
2022/01/17 15:40:29;;;;;;;0.10;0.10;;;;;;;;;;5065614;28;20036;-85